Lady Duvera — PB2875 — position and weather

sailwx.info

Track history (hours):
 
Tides and Currents Weather Stations Pressure Air Temp Water Temp Dewpoint Dewpoint Depression Visibility Wind Speed Wind Dir Waves Ship Positions

Lady Duvera

Last reported at 2015-Jul-03 09:33 UTC. Time now 2015-Jul-03 12:24 UTC.
Position N 43°32' E 007°01'.

Length 44 m.

MMSI: 244650177.

Date/timePositionNaut miles runAvg speedWind from/ knotsBaromVisibWave heightAir tempDewpointWater temp
2015-Jul-03 09:33N 43°32' E 007°01'3 3.1
2015-Jul-03 08:33N 43°34' E 007°05'0 0.0
2015-Jul-03 07:33N 43°34' E 007°05'0 0.0
2015-Jul-03 06:33N 43°34' E 007°05'0 0.0
2015-Jul-03 05:33N 43°34' E 007°05'0 0.0
2015-Jul-03 04:33N 43°34' E 007°05'0 0.0
2015-Jul-03 03:27N 43°34' E 007°05'0 0.0
2015-Jul-03 02:33N 43°34' E 007°05'0 0.0
2015-Jul-03 01:33N 43°34' E 007°05'0 0.0
2015-Jul-03 00:33N 43°34' E 007°05'0 0.0
2015-Jul-02 23:26N 43°34' E 007°05'0 0.0
2015-Jul-02 22:33N 43°34' E 007°05'0 0.0
2015-Jul-02 21:33N 43°34' E 007°05'0 0.0
2015-Jul-02 20:32N 43°34' E 007°05'0 0.0
2015-Jul-02 19:33N 43°34' E 007°05'0 0.0
2015-Jul-02 18:33N 43°34' E 007°05'0 0.0
2015-Jul-02 17:33N 43°34' E 007°05'0 0.0
2015-Jul-02 16:33N 43°34' E 007°05'0 0.0
2015-Jul-02 15:32N 43°34' E 007°05'0 0.0
2015-Jul-02 14:21N 43°34' E 007°05'0 0.0
2015-Jul-02 13:32N 43°34' E 007°05'0 0.0
2015-Jul-02 12:32N 43°34' E 007°05'0 0.0
2015-Jul-02 11:33N 43°34' E 007°05'0 0.0
2015-Jul-02 10:15N 43°34' E 007°05'0 0.0
2015-Jul-02 09:32N 43°34' E 007°05'0 0.0
2015-Jul-02 08:32N 43°34' E 007°05'0 0.0
2015-Jul-02 07:32N 43°34' E 007°05'0 0.0
2015-Jul-02 06:32N 43°34' E 007°05'0 0.0
2015-Jul-02 05:32N 43°34' E 007°05'0 0.0
2015-Jul-02 04:33N 43°34' E 007°05'0 0.0
2015-Jul-02 03:32N 43°34' E 007°05'0 0.0
2015-Jul-02 02:32N 43°34' E 007°05'0 0.0
2015-Jul-02 01:32N 43°34' E 007°05'0 0.0
2015-Jul-02 00:32N 43°34' E 007°05'0 0.0
2015-Jul-01 23:32N 43°34' E 007°05'0 0.0
2015-Jul-01 22:33N 43°34' E 007°05'0 0.0
2015-Jul-01 21:32N 43°34' E 007°05'0 0.0
2015-Jul-01 20:32N 43°34' E 007°05'0 0.0
2015-Jul-01 19:27N 43°34' E 007°05'0 0.0
2015-Jul-01 18:32N 43°34' E 007°05'0 0.0
2015-Jul-01 17:32N 43°34' E 007°05'0 0.0
2015-Jul-01 16:32N 43°34' E 007°05'0 0.0
2015-Jul-01 10:32N 43°34' E 007°05'0 0.0
2015-Jul-01 03:32N 43°34' E 007°05'0 0.0
2015-Jul-01 02:20N 43°34' E 007°05'0 0.0
2015-Jul-01 01:20N 43°34' E 007°05'0 0.0
2015-Jul-01 00:26N 43°34' E 007°05'0 0.0
2015-Jun-30 23:20N 43°34' E 007°05'0 0.0
2015-Jun-30 22:08N 43°34' E 007°05'0 0.0
2015-Jun-30 20:20N 43°34' E 007°05'0 0.0
2015-Jun-30 19:32N 43°34' E 007°05'0 0.0
2015-Jun-30 18:08N 43°34' E 007°05'0 0.0
2015-Jun-30 16:32N 43°34' E 007°05'0 0.0
2015-Jun-30 15:26N 43°34' E 007°05'0 0.0
2015-Jun-30 14:32N 43°34' E 007°05'0 0.0
2015-Jun-30 13:26N 43°34' E 007°05'0 0.0
2015-Jun-30 12:32N 43°34' E 007°05'76 9.5
2015-Jun-30 04:33N 42°35' E 005°58'1111.1
2015-Jun-30 03:33N 42°27' E 005°48'1111.4
2015-Jun-30 02:33N 42°18' E 005°38'1111.2
2015-Jun-30 01:33N 42°10' E 005°28'1111.1
2015-Jun-30 00:33N 42°01' E 005°18'1111.0
2015-Jun-29 23:33N 41°53' E 005°08'1111.0
2015-Jun-29 22:32N 41°45' E 004°58'11311.0
2015-Jun-29 12:12N 40°22' E 003°16'711.5
2015-Jun-29 11:33N 40°16' E 003°10'1111.5
2015-Jun-29 10:33N 40°08' E 002°59'1111.2
2015-Jun-29 09:33N 39°60' E 002°49'1110.8
2015-Jun-29 08:33N 39°52' E 002°40'1110.8
2015-Jun-29 07:32N 39°44' E 002°30'1310.6
2015-Jun-29 06:20N 39°34' E 002°20'810.0
2015-Jun-29 05:33N 39°28' E 002°27'9 9.1
2015-Jun-29 04:33N 39°32' E 002°37'2 2.3
2015-Jun-29 03:33N 39°34' E 002°38'0 0.0
2015-Jun-29 02:33N 39°34' E 002°38'0 0.0
2015-Jun-29 01:33N 39°34' E 002°38'0 0.0
2015-Jun-29 00:33N 39°34' E 002°38'0 0.0
2015-Jun-28 23:33N 39°34' E 002°38'0 0.0
2015-Jun-28 22:34N 39°34' E 002°38'0 0.0
2015-Jun-28 21:33N 39°34' E 002°38'0 0.0
2015-Jun-28 20:33N 39°34' E 002°38'0 0.0
2015-Jun-28 19:33N 39°34' E 002°38'0 0.0
2015-Jun-28 18:33N 39°34' E 002°38'0 0.0
2015-Jun-28 17:33N 39°34' E 002°38'0 0.0
2015-Jun-28 16:33N 39°34' E 002°38'0 0.0
2015-Jun-28 15:33N 39°34' E 002°38'0 0.0
2015-Jun-28 14:33N 39°34' E 002°38'0 0.0
2015-Jun-28 13:33N 39°34' E 002°38'0 0.0
2015-Jun-28 12:33N 39°34' E 002°38'0 0.0
2015-Jun-28 11:33N 39°34' E 002°38'0 0.0
2015-Jun-28 10:33N 39°34' E 002°38'0 0.0
2015-Jun-28 09:33N 39°34' E 002°38'0 0.0
2015-Jun-28 08:33N 39°34' E 002°38'0 0.0
2015-Jun-28 07:33N 39°34' E 002°38'0 0.0
2015-Jun-28 06:33N 39°34' E 002°38'0 0.0
2015-Jun-28 05:33N 39°34' E 002°38'0 0.0
2015-Jun-28 04:33N 39°34' E 002°38'0 0.0
2015-Jun-28 03:33N 39°34' E 002°38'0 0.0
2015-Jun-28 02:33N 39°34' E 002°38'0 0.0
2015-Jun-28 01:33N 39°34' E 002°38'0 0.0
2015-Jun-28 00:33N 39°34' E 002°38'0 0.0
2015-Jun-27 23:33N 39°34' E 002°38'0 0.0
2015-Jun-27 22:33N 39°34' E 002°38'0 0.0
2015-Jun-27 21:33N 39°34' E 002°38'0 0.0
2015-Jun-27 20:33N 39°34' E 002°38'0 0.0
2015-Jun-27 19:33N 39°34' E 002°38'0 0.0
2015-Jun-27 18:33N 39°34' E 002°38'0 0.0
2015-Jun-27 17:33N 39°34' E 002°38'0 0.0
2015-Jun-27 16:33N 39°34' E 002°38'0 0.0
2015-Jun-27 15:33N 39°34' E 002°38'0 0.0
2015-Jun-27 14:33N 39°34' E 002°38'0 0.0
2015-Jun-27 13:30N 39°34' E 002°38'0 0.0
2015-Jun-27 12:33N 39°34' E 002°38'0 0.0
2015-Jun-27 11:33N 39°34' E 002°38'0 0.0
2015-Jun-27 10:33N 39°34' E 002°38'0 0.0
2015-Jun-27 09:33N 39°34' E 002°38'0 0.0
2015-Jun-27 08:33N 39°34' E 002°38'0 0.0
2015-Jun-27 07:33N 39°34' E 002°38'0 0.0
2015-Jun-27 06:33N 39°34' E 002°38'0 0.0
2015-Jun-27 05:33N 39°34' E 002°38'0 0.0
2015-Jun-27 04:33N 39°34' E 002°38'0 0.0
2015-Jun-27 03:33N 39°34' E 002°38'0 0.0
2015-Jun-27 02:33N 39°34' E 002°38'0 0.0
2015-Jun-27 01:33N 39°34' E 002°38'0 0.0
2015-Jun-27 00:33N 39°34' E 002°38'0 0.0
2015-Jun-26 23:33N 39°34' E 002°38'0 0.0
2015-Jun-26 22:33N 39°34' E 002°38'0 0.0
2015-Jun-26 21:33N 39°34' E 002°38'0 0.0
2015-Jun-26 20:33N 39°34' E 002°38'0 0.0
2015-Jun-26 19:33N 39°34' E 002°38'0 0.0
2015-Jun-26 18:33N 39°34' E 002°38'0 0.0
2015-Jun-26 17:33N 39°34' E 002°38'0 0.0
2015-Jun-26 16:33N 39°34' E 002°38'0 0.0
2015-Jun-26 15:33N 39°34' E 002°38'0 0.0
2015-Jun-26 14:33N 39°34' E 002°38'0 0.0
2015-Jun-26 13:33N 39°34' E 002°38'0 0.0
2015-Jun-26 12:33N 39°34' E 002°38'0 0.0
2015-Jun-26 11:33N 39°34' E 002°38'0 0.0
2015-Jun-26 10:33N 39°34' E 002°38'0 0.0
2015-Jun-26 09:33N 39°34' E 002°38'3 2.7
2015-Jun-26 08:33N 39°31' E 002°40'3 2.8
2015-Jun-26 07:33N 39°34' E 002°38'0 0.0
2015-Jun-26 06:33N 39°34' E 002°38'0 0.1
2015-Jun-26 05:32N 39°34' E 002°38'0 0.0
2015-Jun-26 04:32N 39°34' E 002°38'0 0.0
2015-Jun-26 03:29N 39°34' E 002°38'0 0.0
2015-Jun-26 02:32N 39°34' E 002°38'0 0.0
2015-Jun-26 01:32N 39°34' E 002°38'0 0.0
2015-Jun-26 00:32N 39°34' E 002°38'0 0.0
2015-Jun-25 23:32N 39°34' E 002°38'0 0.0
2015-Jun-25 22:14N 39°34' E 002°38'0 0.0
2015-Jun-25 21:29N 39°34' E 002°38'0 0.0
2015-Jun-25 20:32N 39°34' E 002°38'0 0.0
2015-Jun-25 19:32N 39°34' E 002°38'0 0.0
2015-Jun-25 18:32N 39°34' E 002°38'0 0.0
2015-Jun-25 17:32N 39°34' E 002°38'0 0.0
2015-Jun-25 16:32N 39°34' E 002°38'0 0.0
2015-Jun-25 15:32N 39°34' E 002°38'0 0.0
2015-Jun-25 14:32N 39°34' E 002°38'0 0.0
2015-Jun-25 13:32N 39°34' E 002°38'0 0.0
2015-Jun-25 12:32N 39°34' E 002°38'0 0.0
2015-Jun-25 11:32N 39°34' E 002°38'0 0.0
2015-Jun-25 10:32N 39°34' E 002°38'0 0.0
2015-Jun-25 09:32N 39°34' E 002°38'0 0.0
2015-Jun-25 08:32N 39°34' E 002°38'0 0.0
2015-Jun-25 07:32N 39°34' E 002°38'0 0.0
2015-Jun-25 06:32N 39°34' E 002°38'0 0.0
2015-Jun-25 05:32N 39°34' E 002°38'0 0.0
2015-Jun-25 04:32N 39°34' E 002°38'0 0.0
2015-Jun-25 03:32N 39°34' E 002°38'0 0.0
2015-Jun-25 02:32N 39°34' E 002°38'0 0.0
2015-Jun-25 01:32N 39°34' E 002°38'0 0.0
2015-Jun-25 00:32N 39°34' E 002°38'0 0.0
2015-Jun-24 23:32N 39°34' E 002°38'0 0.0
2015-Jun-24 22:32N 39°34' E 002°38'0 0.0
2015-Jun-24 21:32N 39°34' E 002°38'0 0.0
2015-Jun-24 20:32N 39°34' E 002°38'0 0.0
2015-Jun-24 19:32N 39°34' E 002°38'0 0.0
2015-Jun-24 18:32N 39°34' E 002°38'0 0.0
2015-Jun-24 17:32N 39°34' E 002°38'0 0.0
2015-Jun-24 16:32N 39°34' E 002°38'0 0.0
2015-Jun-24 15:29N 39°34' E 002°38'0 0.0
2015-Jun-24 14:32N 39°34' E 002°38'0 0.0
2015-Jun-24 13:32N 39°34' E 002°38'0 0.0
2015-Jun-24 12:32N 39°34' E 002°38'0 0.0
2015-Jun-24 11:32N 39°34' E 002°38'0 0.0
2015-Jun-24 10:32N 39°34' E 002°38'0 0.0
2015-Jun-24 09:32N 39°34' E 002°38'0 0.0
2015-Jun-24 08:32N 39°34' E 002°38'0 0.0
2015-Jun-24 07:32N 39°34' E 002°38'0 0.0
2015-Jun-24 06:32N 39°34' E 002°38'0 0.0
2015-Jun-24 05:32N 39°34' E 002°38'0 0.0
2015-Jun-24 04:32N 39°34' E 002°38'0 0.0
2015-Jun-24 03:32N 39°34' E 002°38'0 0.0
2015-Jun-24 02:32N 39°34' E 002°38'0 0.0
2015-Jun-24 01:32N 39°34' E 002°38'0 0.0
2015-Jun-24 00:32N 39°34' E 002°38'0 0.0
2015-Jun-23 23:32N 39°34' E 002°38'0 0.0
2015-Jun-23 22:32N 39°34' E 002°38'0 0.0
2015-Jun-23 21:32N 39°34' E 002°38'0 0.0
2015-Jun-23 20:32N 39°34' E 002°38'0 0.0
2015-Jun-23 19:32N 39°34' E 002°38'0 0.0
2015-Jun-23 19:05N 39°34' E 002°38'  
Track history (hours):
 
Tides and Currents Weather Stations Pressure Air Temp Water Temp Dewpoint Dewpoint Depression Visibility Wind Speed Wind Dir Waves Ship Positions

Lady Duvera

Last reported at 2015-Jul-03 09:33 UTC. Time now 2015-Jul-03 12:24 UTC.
Position N 43°32' E 007°01'.

Length 44 m.

MMSI: 244650177.

Date/timePositionNaut miles runAvg speedWind from/ knotsBaromVisibWave heightAir tempDewpointWater temp
2015-Jul-03 09:33N 43°32' E 007°01'3 3.1
2015-Jul-03 08:33N 43°34' E 007°05'0 0.0
2015-Jul-03 07:33N 43°34' E 007°05'0 0.0
2015-Jul-03 06:33N 43°34' E 007°05'0 0.0
2015-Jul-03 05:33N 43°34' E 007°05'0 0.0
2015-Jul-03 04:33N 43°34' E 007°05'0 0.0
2015-Jul-03 03:27N 43°34' E 007°05'0 0.0
2015-Jul-03 02:33N 43°34' E 007°05'0 0.0
2015-Jul-03 01:33N 43°34' E 007°05'0 0.0
2015-Jul-03 00:33N 43°34' E 007°05'0 0.0
2015-Jul-02 23:26N 43°34' E 007°05'0 0.0
2015-Jul-02 22:33N 43°34' E 007°05'0 0.0
2015-Jul-02 21:33N 43°34' E 007°05'0 0.0
2015-Jul-02 20:32N 43°34' E 007°05'0 0.0
2015-Jul-02 19:33N 43°34' E 007°05'0 0.0
2015-Jul-02 18:33N 43°34' E 007°05'0 0.0
2015-Jul-02 17:33N 43°34' E 007°05'0 0.0
2015-Jul-02 16:33N 43°34' E 007°05'0 0.0
2015-Jul-02 15:32N 43°34' E 007°05'0 0.0
2015-Jul-02 14:21N 43°34' E 007°05'0 0.0
2015-Jul-02 13:32N 43°34' E 007°05'0 0.0
2015-Jul-02 12:32N 43°34' E 007°05'0 0.0
2015-Jul-02 11:33N 43°34' E 007°05'0 0.0
2015-Jul-02 10:15N 43°34' E 007°05'0 0.0
2015-Jul-02 09:32N 43°34' E 007°05'0 0.0
2015-Jul-02 08:32N 43°34' E 007°05'0 0.0
2015-Jul-02 07:32N 43°34' E 007°05'0 0.0
2015-Jul-02 06:32N 43°34' E 007°05'0 0.0
2015-Jul-02 05:32N 43°34' E 007°05'0 0.0
2015-Jul-02 04:33N 43°34' E 007°05'0 0.0
2015-Jul-02 03:32N 43°34' E 007°05'0 0.0
2015-Jul-02 02:32N 43°34' E 007°05'0 0.0
2015-Jul-02 01:32N 43°34' E 007°05'0 0.0
2015-Jul-02 00:32N 43°34' E 007°05'0 0.0
2015-Jul-01 23:32N 43°34' E 007°05'0 0.0
2015-Jul-01 22:33N 43°34' E 007°05'0 0.0
2015-Jul-01 21:32N 43°34' E 007°05'0 0.0
2015-Jul-01 20:32N 43°34' E 007°05'0 0.0
2015-Jul-01 19:27N 43°34' E 007°05'0 0.0
2015-Jul-01 18:32N 43°34' E 007°05'0 0.0
2015-Jul-01 17:32N 43°34' E 007°05'0 0.0
2015-Jul-01 16:32N 43°34' E 007°05'0 0.0
2015-Jul-01 10:32N 43°34' E 007°05'0 0.0
2015-Jul-01 03:32N 43°34' E 007°05'0 0.0
2015-Jul-01 02:20N 43°34' E 007°05'0 0.0
2015-Jul-01 01:20N 43°34' E 007°05'0 0.0
2015-Jul-01 00:26N 43°34' E 007°05'0 0.0
2015-Jun-30 23:20N 43°34' E 007°05'0 0.0
2015-Jun-30 22:08N 43°34' E 007°05'0 0.0
2015-Jun-30 20:20N 43°34' E 007°05'0 0.0
2015-Jun-30 19:32N 43°34' E 007°05'0 0.0
2015-Jun-30 18:08N 43°34' E 007°05'0 0.0
2015-Jun-30 16:32N 43°34' E 007°05'0 0.0
2015-Jun-30 15:26N 43°34' E 007°05'0 0.0
2015-Jun-30 14:32N 43°34' E 007°05'0 0.0
2015-Jun-30 13:26N 43°34' E 007°05'0 0.0
2015-Jun-30 12:32N 43°34' E 007°05'76 9.5
2015-Jun-30 04:33N 42°35' E 005°58'1111.1
2015-Jun-30 03:33N 42°27' E 005°48'1111.4
2015-Jun-30 02:33N 42°18' E 005°38'1111.2
2015-Jun-30 01:33N 42°10' E 005°28'1111.1
2015-Jun-30 00:33N 42°01' E 005°18'1111.0
2015-Jun-29 23:33N 41°53' E 005°08'1111.0
2015-Jun-29 22:32N 41°45' E 004°58'11311.0
2015-Jun-29 12:12N 40°22' E 003°16'711.5
2015-Jun-29 11:33N 40°16' E 003°10'1111.5
2015-Jun-29 10:33N 40°08' E 002°59'1111.2
2015-Jun-29 09:33N 39°60' E 002°49'1110.8
2015-Jun-29 08:33N 39°52' E 002°40'1110.8
2015-Jun-29 07:32N 39°44' E 002°30'1310.6
2015-Jun-29 06:20N 39°34' E 002°20'810.0
2015-Jun-29 05:33N 39°28' E 002°27'9 9.1
2015-Jun-29 04:33N 39°32' E 002°37'2 2.3
2015-Jun-29 03:33N 39°34' E 002°38'0 0.0
2015-Jun-29 02:33N 39°34' E 002°38'0 0.0
2015-Jun-29 01:33N 39°34' E 002°38'0 0.0
2015-Jun-29 00:33N 39°34' E 002°38'0 0.0
2015-Jun-28 23:33N 39°34' E 002°38'0 0.0
2015-Jun-28 22:34N 39°34' E 002°38'0 0.0
2015-Jun-28 21:33N 39°34' E 002°38'0 0.0
2015-Jun-28 20:33N 39°34' E 002°38'0 0.0
2015-Jun-28 19:33N 39°34' E 002°38'0 0.0
2015-Jun-28 18:33N 39°34' E 002°38'0 0.0
2015-Jun-28 17:33N 39°34' E 002°38'0 0.0
2015-Jun-28 16:33N 39°34' E 002°38'0 0.0
2015-Jun-28 15:33N 39°34' E 002°38'0 0.0
2015-Jun-28 14:33N 39°34' E 002°38'0 0.0
2015-Jun-28 13:33N 39°34' E 002°38'0 0.0
2015-Jun-28 12:33N 39°34' E 002°38'0 0.0
2015-Jun-28 11:33N 39°34' E 002°38'0 0.0
2015-Jun-28 10:33N 39°34' E 002°38'0 0.0
2015-Jun-28 09:33N 39°34' E 002°38'0 0.0
2015-Jun-28 08:33N 39°34' E 002°38'0 0.0
2015-Jun-28 07:33N 39°34' E 002°38'0 0.0
2015-Jun-28 06:33N 39°34' E 002°38'0 0.0
2015-Jun-28 05:33N 39°34' E 002°38'0 0.0
2015-Jun-28 04:33N 39°34' E 002°38'0 0.0
2015-Jun-28 03:33N 39°34' E 002°38'0 0.0
2015-Jun-28 02:33N 39°34' E 002°38'0 0.0
2015-Jun-28 01:33N 39°34' E 002°38'0 0.0
2015-Jun-28 00:33N 39°34' E 002°38'0 0.0
2015-Jun-27 23:33N 39°34' E 002°38'0 0.0
2015-Jun-27 22:33N 39°34' E 002°38'0 0.0
2015-Jun-27 21:33N 39°34' E 002°38'0 0.0
2015-Jun-27 20:33N 39°34' E 002°38'0 0.0
2015-Jun-27 19:33N 39°34' E 002°38'0 0.0
2015-Jun-27 18:33N 39°34' E 002°38'0 0.0
2015-Jun-27 17:33N 39°34' E 002°38'0 0.0
2015-Jun-27 16:33N 39°34' E 002°38'0 0.0
2015-Jun-27 15:33N 39°34' E 002°38'0 0.0
2015-Jun-27 14:33N 39°34' E 002°38'0 0.0
2015-Jun-27 13:30N 39°34' E 002°38'0 0.0
2015-Jun-27 12:33N 39°34' E 002°38'0 0.0
2015-Jun-27 11:33N 39°34' E 002°38'0 0.0
2015-Jun-27 10:33N 39°34' E 002°38'0 0.0
2015-Jun-27 09:33N 39°34' E 002°38'0 0.0
2015-Jun-27 08:33N 39°34' E 002°38'0 0.0
2015-Jun-27 07:33N 39°34' E 002°38'0 0.0
2015-Jun-27 06:33N 39°34' E 002°38'0 0.0
2015-Jun-27 05:33N 39°34' E 002°38'0 0.0
2015-Jun-27 04:33N 39°34' E 002°38'0 0.0
2015-Jun-27 03:33N 39°34' E 002°38'0 0.0
2015-Jun-27 02:33N 39°34' E 002°38'0 0.0
2015-Jun-27 01:33N 39°34' E 002°38'0 0.0
2015-Jun-27 00:33N 39°34' E 002°38'0 0.0
2015-Jun-26 23:33N 39°34' E 002°38'0 0.0
2015-Jun-26 22:33N 39°34' E 002°38'0 0.0
2015-Jun-26 21:33N 39°34' E 002°38'0 0.0
2015-Jun-26 20:33N 39°34' E 002°38'0 0.0
2015-Jun-26 19:33N 39°34' E 002°38'0 0.0
2015-Jun-26 18:33N 39°34' E 002°38'0 0.0
2015-Jun-26 17:33N 39°34' E 002°38'0 0.0
2015-Jun-26 16:33N 39°34' E 002°38'0 0.0
2015-Jun-26 15:33N 39°34' E 002°38'0 0.0
2015-Jun-26 14:33N 39°34' E 002°38'0 0.0
2015-Jun-26 13:33N 39°34' E 002°38'0 0.0
2015-Jun-26 12:33N 39°34' E 002°38'0 0.0
2015-Jun-26 11:33N 39°34' E 002°38'0 0.0
2015-Jun-26 10:33N 39°34' E 002°38'0 0.0
2015-Jun-26 09:33N 39°34' E 002°38'3 2.7
2015-Jun-26 08:33N 39°31' E 002°40'3 2.8
2015-Jun-26 07:33N 39°34' E 002°38'0 0.0
2015-Jun-26 06:33N 39°34' E 002°38'0 0.1
2015-Jun-26 05:32N 39°34' E 002°38'0 0.0
2015-Jun-26 04:32N 39°34' E 002°38'0 0.0
2015-Jun-26 03:29N 39°34' E 002°38'0 0.0
2015-Jun-26 02:32N 39°34' E 002°38'0 0.0
2015-Jun-26 01:32N 39°34' E 002°38'0 0.0
2015-Jun-26 00:32N 39°34' E 002°38'0 0.0
2015-Jun-25 23:32N 39°34' E 002°38'0 0.0
2015-Jun-25 22:14N 39°34' E 002°38'0 0.0
2015-Jun-25 21:29N 39°34' E 002°38'0 0.0
2015-Jun-25 20:32N 39°34' E 002°38'0 0.0
2015-Jun-25 19:32N 39°34' E 002°38'0 0.0
2015-Jun-25 18:32N 39°34' E 002°38'0 0.0
2015-Jun-25 17:32N 39°34' E 002°38'0 0.0
2015-Jun-25 16:32N 39°34' E 002°38'0 0.0
2015-Jun-25 15:32N 39°34' E 002°38'0 0.0
2015-Jun-25 14:32N 39°34' E 002°38'0 0.0
2015-Jun-25 13:32N 39°34' E 002°38'0 0.0
2015-Jun-25 12:32N 39°34' E 002°38'0 0.0
2015-Jun-25 11:32N 39°34' E 002°38'0 0.0
2015-Jun-25 10:32N 39°34' E 002°38'0 0.0
2015-Jun-25 09:32N 39°34' E 002°38'0 0.0
2015-Jun-25 08:32N 39°34' E 002°38'0 0.0
2015-Jun-25 07:32N 39°34' E 002°38'0 0.0
2015-Jun-25 06:32N 39°34' E 002°38'0 0.0
2015-Jun-25 05:32N 39°34' E 002°38'0 0.0
2015-Jun-25 04:32N 39°34' E 002°38'0 0.0
2015-Jun-25 03:32N 39°34' E 002°38'0 0.0
2015-Jun-25 02:32N 39°34' E 002°38'0 0.0
2015-Jun-25 01:32N 39°34' E 002°38'0 0.0
2015-Jun-25 00:32N 39°34' E 002°38'0 0.0
2015-Jun-24 23:32N 39°34' E 002°38'0 0.0
2015-Jun-24 22:32N 39°34' E 002°38'0 0.0
2015-Jun-24 21:32N 39°34' E 002°38'0 0.0
2015-Jun-24 20:32N 39°34' E 002°38'0 0.0
2015-Jun-24 19:32N 39°34' E 002°38'0 0.0
2015-Jun-24 18:32N 39°34' E 002°38'0 0.0
2015-Jun-24 17:32N 39°34' E 002°38'0 0.0
2015-Jun-24 16:32N 39°34' E 002°38'0 0.0
2015-Jun-24 15:29N 39°34' E 002°38'0 0.0
2015-Jun-24 14:32N 39°34' E 002°38'0 0.0
2015-Jun-24 13:32N 39°34' E 002°38'0 0.0
2015-Jun-24 12:32N 39°34' E 002°38'0 0.0
2015-Jun-24 11:32N 39°34' E 002°38'0 0.0
2015-Jun-24 10:32N 39°34' E 002°38'0 0.0
2015-Jun-24 09:32N 39°34' E 002°38'0 0.0
2015-Jun-24 08:32N 39°34' E 002°38'0 0.0
2015-Jun-24 07:32N 39°34' E 002°38'0 0.0
2015-Jun-24 06:32N 39°34' E 002°38'0 0.0
2015-Jun-24 05:32N 39°34' E 002°38'0 0.0
2015-Jun-24 04:32N 39°34' E 002°38'0 0.0
2015-Jun-24 03:32N 39°34' E 002°38'0 0.0
2015-Jun-24 02:32N 39°34' E 002°38'0 0.0
2015-Jun-24 01:32N 39°34' E 002°38'0 0.0
2015-Jun-24 00:32N 39°34' E 002°38'0 0.0
2015-Jun-23 23:32N 39°34' E 002°38'0 0.0
2015-Jun-23 22:32N 39°34' E 002°38'0 0.0
2015-Jun-23 21:32N 39°34' E 002°38'0 0.0
2015-Jun-23 20:32N 39°34' E 002°38'0 0.0
2015-Jun-23 19:32N 39°34' E 002°38'0 0.0
2015-Jun-23 19:05N 39°34' E 002°38'  

Dump ship's entire track history